Time;durP1;ratioP1;P1;durP2;ratioP2;P2;SDS_P1;SDS_P2;PMS_P1;PMS_P2;Temp;Humidity;BMP_temperature;BMP_pressure;BME280_temperature;BME280_humidity;BME280_pressure;Samples;Min_cycle;Max_cycle;Signal;HPM_P1;HPM_P2
2022/12/05 00:01:36;;;;;;;;;;;;;;;9.53;64.55;99955.84;5053664;28;19928;-77
2022/12/05 00:04:02;;;;;;;;;;;;;;;9.54;64.81;99963.56;5036975;28;19917;-76
2022/12/05 00:06:28;;;;;;;;;;;;;;;9.54;64.53;99960.97;5054248;28;19939;-76
2022/12/05 00:08:53;;;;;;;;;;;;;;;9.54;64.62;99955.75;5053465;28;20376;-76
2022/12/05 00:11:19;;;;;;;;;;;;;;;9.54;64.51;99954.94;5036501;28;20004;-76
2022/12/05 00:13:44;;;;;;;;;;;;;;;9.53;64.39;99956.66;5053632;28;19917;-77
2022/12/05 00:16:10;;;;;;;;;;;;;;;9.54;64.47;99953.16;5053612;28;19917;-75
2022/12/05 00:18:36;;;;;;;;;;;;;;;9.53;64.54;99956.66;5036789;28;20244;-75
2022/12/05 00:21:01;;;;;;;;;;;;;;;9.53;64.39;99958.44;5052978;28;20453;-77
2022/12/05 00:23:26;;;;;;;;;;;;;;;9.53;64.27;99954.06;5053381;28;19939;-77
2022/12/05 00:25:52;;;;;;;;;;;;;;;9.54;64.40;99952.31;5054525;28;19913;-77
2022/12/05 00:28:17;;;;;;;;;;;;;;;9.54;64.33;99945.34;5054834;28;19924;-77
2022/12/05 00:30:42;;;;;;;;;;;;;;;9.54;64.30;99953.16;5054766;28;20449;-77
2022/12/05 00:33:07;;;;;;;;;;;;;;;9.55;64.27;99953.97;5053143;28;19921;-77
2022/12/05 00:35:33;;;;;;;;;;;;;;;9.54;64.19;99958.38;5043271;28;19920;-78
2022/12/05 00:37:58;;;;;;;;;;;;;;;9.54;64.38;99955.75;5019850;28;19924;-77
2022/12/05 00:40:23;;;;;;;;;;;;;;;9.54;64.36;99952.31;5036608;28;20067;-77
2022/12/05 00:42:49;;;;;;;;;;;;;;;9.54;64.27;99954.94;5036342;28;19921;-76
2022/12/05 00:45:14;;;;;;;;;;;;;;;9.53;64.23;99954.06;5020325;28;19968;-77
2022/12/05 00:47:39;;;;;;;;;;;;;;;9.55;64.28;99951.38;5036318;28;19917;-77
2022/12/05 00:50:05;;;;;;;;;;;;;;;9.53;64.26;99950.63;5019930;28;19951;-76
2022/12/05 00:52:30;;;;;;;;;;;;;;;9.52;64.47;99952.41;5019578;28;19948;-77
2022/12/05 00:54:55;;;;;;;;;;;;;;;9.52;64.32;99949.78;5019728;28;19990;-77
2022/12/05 00:57:21;;;;;;;;;;;;;;;9.53;64.21;99948.00;5054584;28;20019;-77
2022/12/05 00:59:46;;;;;;;;;;;;;;;9.54;64.35;99944.50;5039087;28;19920;-78
2022/12/05 01:02:11;;;;;;;;;;;;;;;9.53;64.26;99943.63;5041626;28;20378;-75
2022/12/05 01:04:37;;;;;;;;;;;;;;;9.52;64.38;99947.19;5039132;28;19924;-76
2022/12/05 01:07:02;;;;;;;;;;;;;;;9.53;64.40;99945.41;5037001;28;19961;-76
2022/12/05 01:09:27;;;;;;;;;;;;;;;9.52;64.18;99944.56;5036740;28;20440;-76
2022/12/05 01:11:53;;;;;;;;;;;;;;;9.52;64.22;99941.97;5054286;28;19921;-76
2022/12/05 01:14:19;;;;;;;;;;;;;;;9.51;64.21;99948.09;5036180;28;19920;-76
2022/12/05 01:16:44;;;;;;;;;;;;;;;9.51;64.23;99940.28;5035392;28;19924;-76
2022/12/05 01:19:11;;;;;;;;;;;;;;;9.53;64.13;99937.59;5035911;28;19920;-76
2022/12/05 01:21:36;;;;;;;;;;;;;;;9.52;63.96;99936.75;5019031;28;19970;-76
2022/12/05 01:24:01;;;;;;;;;;;;;;;9.53;64.05;99945.41;5019158;28;20410;-76
2022/12/05 01:26:27;;;;;;;;;;;;;;;9.53;64.23;99941.03;5035993;28;19917;-76
2022/12/05 01:28:52;;;;;;;;;;;;;;;9.52;64.11;99936.75;5019142;28;19924;-76
2022/12/05 01:31:28;;;;;;;;;;;;;;;9.53;63.99;99927.16;5035797;28;19943;-76
2022/12/05 01:33:54;;;;;;;;;;;;;;;9.52;64.09;99934.16;5053402;28;19917;-76
2022/12/05 01:36:19;;;;;;;;;;;;;;;9.51;63.89;99929.84;5019079;28;19951;-76
2022/12/05 01:38:44;;;;;;;;;;;;;;;9.52;64.11;99930.69;5035422;28;20023;-76
2022/12/05 01:41:11;;;;;;;;;;;;;;;9.52;64.14;99920.25;5035777;28;19917;-76
2022/12/05 01:43:53;;;;;;;;;;;;;;;9.50;64.04;99924.72;5035191;28;19928;-77
2022/12/05 01:46:18;;;;;;;;;;;;;;;9.50;63.97;99917.72;5035596;28;20046;-76
2022/12/05 01:48:43;;;;;;;;;;;;;;;9.50;64.00;99914.28;5035380;28;19925;-75
2022/12/05 01:51:08;;;;;;;;;;;;;;;9.50;63.95;99909.91;5035334;28;19917;-77
2022/12/05 01:53:34;;;;;;;;;;;;;;;9.51;64.10;99910.78;5035527;28;19917;-77
2022/12/05 01:55:59;;;;;;;;;;;;;;;9.50;63.97;99911.69;5035447;28;20452;-75
2022/12/05 01:58:24;;;;;;;;;;;;;;;9.51;63.97;99910.78;5035056;28;19925;-75
2022/12/05 02:00:50;;;;;;;;;;;;;;;9.51;63.96;99911.59;5034918;28;19925;-75
2022/12/05 02:03:18;;;;;;;;;;;;;;;9.50;64.07;99907.31;5052722;28;20304;-75
2022/12/05 02:05:43;;;;;;;;;;;;;;;9.49;64.04;99900.44;5034890;28;19921;-76
2022/12/05 02:08:09;;;;;;;;;;;;;;;9.50;63.99;99901.25;5035552;28;19917;-76
2022/12/05 02:10:45;;;;;;;;;;;;;;;9.49;63.91;99903.03;5052618;28;19917;-76
2022/12/05 02:13:24;;;;;;;;;;;;;;;9.49;64.03;99895.22;5035067;28;19963;-76
2022/12/05 02:15:59;;;;;;;;;;;;;;;9.48;63.97;99893.53;5018448;28;20001;-77
2022/12/05 02:18:48;;;;;;;;;;;;;;;9.47;64.03;99891.84;5053027;28;19966;-76
2022/12/05 02:21:13;;;;;;;;;;;;;;;9.48;63.71;99887.47;4991393;28;20021;-77
2022/12/05 02:23:38;;;;;;;;;;;;;;;9.48;63.93;99890.91;4991340;28;19954;-76
2022/12/05 02:26:04;;;;;;;;;;;;;;;9.48;63.88;99890.91;4991331;28;19960;-77
2022/12/05 02:28:41;;;;;;;;;;;;;;;9.47;63.77;99891.00;4994212;28;20049;-77
2022/12/05 02:31:09;;;;;;;;;;;;;;;9.49;63.72;99896.97;4995192;28;19917;-76
2022/12/05 02:33:35;;;;;;;;;;;;;;;9.49;63.72;99890.00;4978926;28;19921;-76
2022/12/05 02:36:08;;;;;;;;;;;;;;;9.48;63.63;99885.69;4995176;28;20448;-76
2022/12/05 02:38:51;;;;;;;;;;;;;;;9.48;63.33;99885.69;4995004;28;19924;-75
2022/12/05 02:41:25;;;;;;;;;;;;;;;9.50;63.51;99893.44;4978649;28;19949;-77
2022/12/05 02:43:52;;;;;;;;;;;;;;;9.50;63.43;99891.66;4995091;28;19928;-75
2022/12/05 02:46:19;;;;;;;;;;;;;;;9.49;63.53;99892.59;4962374;28;20060;-76
2022/12/05 02:48:45;;;;;;;;;;;;;;;9.50;63.41;99901.25;4982713;28;19930;-77
2022/12/05 02:51:11;;;;;;;;;;;;;;;9.49;63.56;99902.16;4959518;28;19922;-76
2022/12/05 02:53:36;;;;;;;;;;;;;;;9.49;63.38;99896.97;4977204;28;19980;-76
2022/12/05 02:56:01;;;;;;;;;;;;;;;9.49;63.57;99891.75;4960955;28;20122;-77
2022/12/05 02:58:30;;;;;;;;;;;;;;;9.49;63.58;99890.00;5014667;28;19921;-75
2022/12/05 03:00:55;;;;;;;;;;;;;;;9.49;63.47;99879.56;5038721;28;19921;-77
2022/12/05 03:03:20;;;;;;;;;;;;;;;9.49;63.36;99884.78;5038213;28;19923;-75
2022/12/05 03:06:04;;;;;;;;;;;;;;;9.49;63.43;99879.56;5038549;28;20368;-77
2022/12/05 03:08:37;;;;;;;;;;;;;;;9.48;63.44;99885.69;5056044;28;19921;-77
2022/12/05 03:11:02;;;;;;;;;;;;;;;9.48;63.21;99885.69;5021685;28;19994;-75
2022/12/05 03:13:29;;;;;;;;;;;;;;;9.47;63.13;99883.19;5038109;28;19983;-77
2022/12/05 03:16:02;;;;;;;;;;;;;;;9.49;63.26;99878.72;5021384;28;19999;-76
2022/12/05 03:18:48;;;;;;;;;;;;;;;9.48;63.32;99877.88;5021757;28;20407;-76
2022/12/05 03:21:20;;;;;;;;;;;;;;;9.48;63.30;99874.44;5027147;28;20307;-76
2022/12/05 03:23:47;;;;;;;;;;;;;;;9.48;63.23;99879.66;5038461;28;19917;-77
2022/12/05 03:26:16;;;;;;;;;;;;;;;9.48;63.16;99879.66;5021289;28;19917;-76
2022/12/05 03:29:00;;;;;;;;;;;;;;;9.48;63.17;99883.09;5056160;28;19990;-75
2022/12/05 03:31:52;;;;;;;;;;;;;;;9.47;63.06;99885.78;5037691;28;19920;-77
2022/12/05 03:34:19;;;;;;;;;;;;;;;9.47;63.10;99886.66;5034768;28;19964;-77
2022/12/05 03:36:45;;;;;;;;;;;;;;;9.48;63.04;99885.69;5021201;28;20331;-76
2022/12/05 03:39:17;;;;;;;;;;;;;;;9.49;62.99;99882.19;5036930;28;19917;-78
2022/12/05 03:42:03;;;;;;;;;;;;;;;9.49;62.87;99890.00;5055713;28;19917;-77
2022/12/05 03:44:32;;;;;;;;;;;;;;;9.50;63.00;99896.03;5041608;28;19921;-76
2022/12/05 03:47:02;;;;;;;;;;;;;;;9.48;62.95;99898.72;5055323;28;20416;-77
2022/12/05 03:49:30;;;;;;;;;;;;;;;9.48;62.86;99898.72;5021094;28;19917;-78
2022/12/05 03:51:57;;;;;;;;;;;;;;;9.49;62.76;99895.22;5055581;28;20419;-77
2022/12/05 03:54:26;;;;;;;;;;;;;;;9.48;62.74;99901.34;5020854;28;19921;-77
2022/12/05 03:56:54;;;;;;;;;;;;;;;9.48;62.78;99903.13;5020930;28;20042;-78
2022/12/05 03:59:49;;;;;;;;;;;;;;;9.48;62.91;99900.50;5020471;28;20019;-78
2022/12/05 04:02:17;;;;;;;;;;;;;;;9.49;62.91;99908.25;4974810;28;19922;-77
2022/12/05 04:05:08;;;;;;;;;;;;;;;9.49;62.89;99915.19;4974303;28;20337;-77
2022/12/05 04:07:34;;;;;;;;;;;;;;;9.48;62.72;99909.16;4973996;28;19926;-76
2022/12/05 04:10:01;;;;;;;;;;;;;;;9.48;62.81;99905.72;4974111;28;19946;-77
2022/12/05 04:12:27;;;;;;;;;;;;;;;9.49;62.98;99899.56;4973919;28;20385;-76
2022/12/05 04:14:54;;;;;;;;;;;;;;;9.49;63.01;99913.47;4973928;28;19972;-76
2022/12/05 04:17:29;;;;;;;;;;;;;;;9.48;62.83;99906.56;4973714;28;19918;-78
2022/12/05 04:22:45;;;;;;;;;;;;;;;9.48;62.73;99903.13;4974312;28;19925;-80
2022/12/05 04:28:04;;;;;;;;;;;;;;;9.48;62.77;99898.72;4974233;28;20325;-77
2022/12/05 04:30:52;;;;;;;;;;;;;;;9.48;62.92;99896.13;4973989;28;19930;-76
2022/12/05 04:33:35;;;;;;;;;;;;;;;9.48;62.74;99901.34;4973961;28;19917;-74
2022/12/05 04:36:00;;;;;;;;;;;;;;;9.48;62.92;99897.91;4980762;28;19926;-78
2022/12/05 04:38:26;;;;;;;;;;;;;;;9.46;62.82;99895.38;5017501;28;19917;-77
2022/12/05 04:41:01;;;;;;;;;;;;;;;9.48;62.88;99898.72;5040851;28;19971;-75
2022/12/05 04:43:27;;;;;;;;;;;;;;;9.47;62.73;99902.28;5034483;28;19924;-76
2022/12/05 04:45:53;;;;;;;;;;;;;;;9.47;62.96;99901.41;5033460;28;19917;-79
2022/12/05 04:48:18;;;;;;;;;;;;;;;9.48;62.67;99897.91;5016772;28;19929;-77
2022/12/05 04:50:44;;;;;;;;;;;;;;;9.48;62.74;99900.50;5034522;28;20002;-87
2022/12/05 04:53:09;;;;;;;;;;;;;;;9.47;62.66;99897.06;5016271;28;20008;-77
2022/12/05 04:55:35;;;;;;;;;;;;;;;9.48;62.73;99903.13;5033058;28;20018;-77
2022/12/05 04:58:00;;;;;;;;;;;;;;;9.46;62.68;99904.97;5032870;28;19928;-77
2022/12/05 05:00:26;;;;;;;;;;;;;;;9.47;62.73;99901.41;5034428;28;19921;-77
2022/12/05 05:02:53;;;;;;;;;;;;;;;9.49;62.81;99905.63;5031901;28;20281;-77
2022/12/05 05:05:19;;;;;;;;;;;;;;;9.47;62.93;99902.28;5032234;28;20395;-77
2022/12/05 05:07:45;;;;;;;;;;;;;;;9.47;62.84;99898.81;5034078;28;19924;-77
2022/12/05 05:10:10;;;;;;;;;;;;;;;9.48;62.81;99909.16;5031861;28;19921;-77
2022/12/05 05:12:35;;;;;;;;;;;;;;;9.46;62.72;99904.97;5032694;28;19940;-77
2022/12/05 05:15:01;;;;;;;;;;;;;;;9.46;62.78;99903.19;5032731;28;20438;-77
2022/12/05 05:17:26;;;;;;;;;;;;;;;9.46;63.05;99897.97;5032601;28;19932;-77
2022/12/05 05:20:22;;;;;;;;;;;;;;;9.46;62.78;99904.97;5042047;28;19921;-77
2022/12/05 05:22:36;;;;;;;;;;;;;;;9.49;62.80;99904.78;5052586;28;19956;-76
2022/12/05 05:25:02;;;;;;;;;;;;;;;9.49;62.82;99913.47;5052594;28;19917;-76
2022/12/05 05:27:27;;;;;;;;;;;;;;;9.47;62.78;99914.44;5053502;28;19967;-78
2022/12/05 05:29:52;;;;;;;;;;;;;;;9.47;62.88;99912.72;5036234;28;19921;-78
2022/12/05 05:32:18;;;;;;;;;;;;;;;9.48;62.68;99903.94;5035487;28;20035;-76
2022/12/05 05:34:43;;;;;;;;;;;;;;;9.48;62.79;99903.94;5051684;28;19917;-76
2022/12/05 05:37:08;;;;;;;;;;;;;;;9.48;62.66;99909.16;5053907;28;19942;-78
2022/12/05 05:39:34;;;;;;;;;;;;;;;9.48;62.73;99900.50;5053272;28;20307;-78
2022/12/05 05:41:59;;;;;;;;;;;;;;;9.46;62.82;99903.19;5052443;28;19923;-78
2022/12/05 05:44:24;;;;;;;;;;;;;;;9.48;62.72;99901.34;5035491;28;20038;-78
2022/12/05 05:46:49;;;;;;;;;;;;;;;9.49;62.79;99894.34;5052376;28;19951;-77
2022/12/05 05:49:15;;;;;;;;;;;;;;;9.50;62.81;99901.25;5053217;28;19917;-78
2022/12/05 05:51:40;;;;;;;;;;;;;;;9.51;62.65;99902.94;5050707;28;19917;-77
2022/12/05 05:54:05;;;;;;;;;;;;;;;9.51;62.62;99902.94;5015438;28;19917;-77
2022/12/05 05:56:31;;;;;;;;;;;;;;;9.53;62.55;99899.31;5031591;28;19956;-77
2022/12/05 05:58:57;;;;;;;;;;;;;;;9.54;62.44;99901.00;5031918;28;19917;-77
2022/12/05 06:01:22;;;;;;;;;;;;;;;9.54;62.43;99903.63;5015414;28;20312;-78
2022/12/05 06:03:49;;;;;;;;;;;;;;;9.57;62.50;99902.63;5031585;28;19928;-78
2022/12/05 06:06:14;;;;;;;;;;;;;;;9.57;62.47;99906.06;5031877;28;19921;-78
2022/12/05 06:08:40;;;;;;;;;;;;;;;9.58;62.55;99906.91;5032054;28;19917;-79
2022/12/05 06:11:06;;;;;;;;;;;;;;;9.59;62.38;99913.81;5015332;28;19921;-77
2022/12/05 06:13:31;;;;;;;;;;;;;;;9.59;62.23;99916.41;5031649;28;19917;-78
2022/12/05 06:15:57;;;;;;;;;;;;;;;9.61;62.12;99909.34;5032892;28;19917;-78
2022/12/05 06:18:22;;;;;;;;;;;;;;;9.61;62.31;99911.94;5032288;28;19924;-80
2022/12/05 06:20:54;;;;;;;;;;;;;;;9.63;61.97;99915.34;5031857;28;19932;-79
2022/12/05 06:23:19;;;;;;;;;;;;;;;9.65;61.86;99921.31;5015175;28;19917;-78
2022/12/05 06:25:48;;;;;;;;;;;;;;;9.67;61.81;99914.22;5032977;28;19917;-78
2022/12/05 06:28:13;;;;;;;;;;;;;;;9.68;61.78;99913.31;5032018;28;19917;-78
2022/12/05 06:30:39;;;;;;;;;;;;;;;9.71;61.59;99918.38;5032974;28;19917;-78
2022/12/05 06:33:04;;;;;;;;;;;;;;;9.74;61.50;99917.34;5031289;28;20376;-78
2022/12/05 06:35:29;;;;;;;;;;;;;;;9.76;61.70;99921.56;5031856;28;19917;-78
2022/12/05 06:37:55;;;;;;;;;;;;;;;9.81;61.66;99923.09;5031645;28;19917;-78
2022/12/05 06:40:20;;;;;;;;;;;;;;;9.85;61.29;99928.06;5032850;28;19983;-78
2022/12/05 06:42:45;;;;;;;;;;;;;;;9.88;61.51;99927.91;5032915;28;19924;-78
2022/12/05 06:45:11;;;;;;;;;;;;;;;9.92;61.42;99924.19;5031653;28;19917;-79
2022/12/05 06:47:36;;;;;;;;;;;;;;;9.99;61.29;99929.91;5031948;28;19921;-76
2022/12/05 06:50:01;;;;;;;;;;;;;;;10.06;65.08;99927.81;5035183;28;19917;-80
2022/12/05 06:52:27;;;;;;;;;;;;;;;10.16;64.75;99923.75;5035970;28;19921;-77
2022/12/05 06:55:03;;;;;;;;;;;;;;;10.40;70.54;99936.38;5015394;28;19921;-78
2022/12/05 06:57:29;;;;;;;;;;;;;;;11.06;72.48;99943.03;5048223;28;20384;-79
2022/12/05 07:01:37;;;;;;;;;;;;;;;11.47;70.68;99951.97;5015020;28;19932;-76
2022/12/05 07:02:40;;;;;;;;;;;;;;;11.83;67.27;99942.75;5032564;28;20373;-76
2022/12/05 07:05:09;;;;;;;;;;;;;;;11.89;65.34;99943.25;5032583;28;20003;-79
2022/12/05 07:07:34;;;;;;;;;;;;;;;11.86;64.25;99948.66;5013921;28;19917;-77
2022/12/05 07:10:00;;;;;;;;;;;;;;;11.82;63.38;99947.16;5030843;28;19921;-79
2022/12/05 07:12:25;;;;;;;;;;;;;;;11.78;62.46;99948.31;5014197;28;19921;-78
2022/12/05 07:14:50;;;;;;;;;;;;;;;11.72;61.69;99946.06;5032529;28;19923;-78
2022/12/05 07:17:19;;;;;;;;;;;;;;;11.64;61.58;99950.91;5034933;28;20335;-77
2022/12/05 07:19:45;;;;;;;;;;;;;;;11.57;61.39;99951.31;5026866;28;19939;-79
2022/12/05 07:22:11;;;;;;;;;;;;;;;11.53;61.70;99956.81;5037874;28;19956;-84
2022/12/05 07:24:36;;;;;;;;;;;;;;;11.51;61.51;99958.66;5055118;28;19956;-84
2022/12/05 07:27:01;;;;;;;;;;;;;;;11.66;66.29;99976.03;5041108;28;20380;-89
2022/12/05 07:29:27;;;;;;;;;;;;;;;11.86;67.88;99963.50;5055916;28;19916;-80
2022/12/05 07:31:52;;;;;;;;;;;;;;;11.96;66.01;99975.13;5054359;28;19959;-80
2022/12/05 07:34:17;;;;;;;;;;;;;;;11.98;63.42;99977.66;5055071;28;20316;-81
2022/12/05 07:36:43;;;;;;;;;;;;;;;11.99;62.27;99977.56;5054134;28;19952;-83
2022/12/05 07:39:08;;;;;;;;;;;;;;;11.99;61.62;99982.78;5055755;28;19967;-79
2022/12/05 07:41:34;;;;;;;;;;;;;;;12.00;61.14;99978.38;5054549;28;19916;-85
2022/12/05 07:43:59;;;;;;;;;;;;;;;11.97;60.51;99989.91;5057431;28;19924;-85
2022/12/05 07:46:25;;;;;;;;;;;;;;;11.96;60.49;99988.22;5054815;28;19917;-77
2022/12/05 07:48:50;;;;;;;;;;;;;;;11.95;59.92;99986.50;5038000;28;19916;-77
2022/12/05 07:51:16;;;;;;;;;;;;;;;11.94;59.43;99983.06;5054166;28;20303;-78
2022/12/05 07:53:43;;;;;;;;;;;;;;;11.96;59.48;99990.00;5038163;28;19921;-78
2022/12/05 07:56:08;;;;;;;;;;;;;;;11.95;59.44;99983.91;5036727;28;19924;-79
2022/12/05 07:58:34;;;;;;;;;;;;;;;11.96;58.89;99982.97;5054028;28;19920;-77
2022/12/05 08:01:06;;;;;;;;;;;;;;;11.98;58.33;99985.50;5054183;28;19975;-76
2022/12/05 08:03:31;;;;;;;;;;;;;;;11.99;58.14;99988.03;5054218;28;19966;-78
2022/12/05 08:06:00;;;;;;;;;;;;;;;11.99;57.96;99990.63;5037505;28;19917;-78
2022/12/05 08:08:25;;;;;;;;;;;;;;;11.99;58.12;99990.63;5055219;28;19959;-76
2022/12/05 08:10:50;;;;;;;;;;;;;;;12.00;58.03;99991.47;5055522;28;19921;-78
2022/12/05 08:13:16;;;;;;;;;;;;;;;12.00;57.67;99991.47;5047123;28;19917;-78
2022/12/05 08:15:41;;;;;;;;;;;;;;;12.01;57.62;99986.13;5061485;28;19921;-78
2022/12/05 08:18:06;;;;;;;;;;;;;;;12.02;57.74;99982.59;5056401;28;19924;-78
2022/12/05 08:20:32;;;;;;;;;;;;;;;12.03;57.33;99986.88;5056848;28;19925;-77
2022/12/05 08:22:57;;;;;;;;;;;;;;;12.04;57.57;99985.13;5054855;28;19967;-78
2022/12/05 08:25:22;;;;;;;;;;;;;;;12.05;57.30;99985.03;5055035;28;20042;-78
2022/12/05 08:27:48;;;;;;;;;;;;;;;12.07;57.02;99985.75;5054163;28;19927;-78
2022/12/05 08:30:13;;;;;;;;;;;;;;;12.07;56.89;99983.13;5054988;28;19960;-78
2022/12/05 08:32:38;;;;;;;;;;;;;;;12.09;56.81;99981.25;5053728;28;19956;-78
2022/12/05 08:35:04;;;;;;;;;;;;;;;12.10;56.95;99974.28;5053979;28;19917;-78
2022/12/05 08:37:29;;;;;;;;;;;;;;;12.13;56.65;99974.06;5054132;28;19924;-78
2022/12/05 08:39:54;;;;;;;;;;;;;;;12.17;56.33;99966.88;5053542;28;19917;-77
2022/12/05 08:42:19;;;;;;;;;;;;;;;12.20;56.41;99966.66;5053805;28;19917;-79
2022/12/05 08:44:45;;;;;;;;;;;;;;;12.24;56.12;99968.13;5036873;28;19939;-78
2022/12/05 08:47:10;;;;;;;;;;;;;;;12.27;55.92;99960.09;5036682;28;20059;-77
2022/12/05 08:49:35;;;;;;;;;;;;;;;12.29;56.20;99964.31;5053149;28;19917;-77
2022/12/05 08:52:01;;;;;;;;;;;;;;;12.28;56.16;99960.00;5036759;28;19917;-77
2022/12/05 08:54:26;;;;;;;;;;;;;;;12.27;55.92;99952.22;5054458;28;19959;-78
2022/12/05 08:56:51;;;;;;;;;;;;;;;12.24;56.15;99958.53;5053117;28;20307;-79
2022/12/05 08:59:17;;;;;;;;;;;;;;;12.23;55.79;99956.00;5053144;28;19963;-80
2022/12/05 09:01:42;;;;;;;;;;;;;;;12.22;55.83;99946.47;5053368;28;19946;-78
2022/12/05 09:04:08;;;;;;;;;;;;;;;12.22;55.58;99946.47;5053948;28;19951;-80
2022/12/05 09:06:33;;;;;;;;;;;;;;;12.22;55.56;99941.22;5035488;28;19917;-79
2022/12/05 09:08:59;;;;;;;;;;;;;;;12.25;55.47;99939.25;5036359;28;19951;-79
2022/12/05 09:11:25;;;;;;;;;;;;;;;12.29;55.22;99935.50;5036161;28;20020;-79
2022/12/05 09:13:51;;;;;;;;;;;;;;;12.27;54.65;99931.28;5036014;28;19975;-77
2022/12/05 09:16:17;;;;;;;;;;;;;;;12.24;54.96;99931.47;5052650;28;19921;-78
2022/12/05 09:18:42;;;;;;;;;;;;;;;12.23;54.98;99928.03;5036354;28;20007;-78
2022/12/05 09:21:08;;;;;;;;;;;;;;;12.23;54.84;99922.81;5054634;28;19967;-79
2022/12/05 09:23:34;;;;;;;;;;;;;;;12.25;54.67;99922.69;5035965;28;20011;-79
2022/12/05 09:26:02;;;;;;;;;;;;;;;12.28;54.66;99918.09;5053226;28;19924;-79
2022/12/05 09:28:28;;;;;;;;;;;;;;;12.32;54.32;99910.91;5036124;28;19917;-79
2022/12/05 09:30:56;;;;;;;;;;;;;;;12.37;54.46;99906.22;5036136;28;19924;-78
2022/12/05 09:33:22;;;;;;;;;;;;;;;12.43;54.43;99903.19;5019279;28;19962;-79
2022/12/05 09:35:47;;;;;;;;;;;;;;;12.48;54.31;99902.88;5036138;28;20368;-78
2022/12/05 09:38:12;;;;;;;;;;;;;;;12.54;53.89;99905.13;5019168;28;19917;-80
2022/12/05 09:40:39;;;;;;;;;;;;;;;12.61;53.67;99898.50;5035565;28;19921;-78
2022/12/05 09:43:05;;;;;;;;;;;;;;;12.65;53.52;99904.38;5036180;28;20376;-79
2022/12/05 09:45:42;;;;;;;;;;;;;;;12.67;53.30;99908.59;5053517;28;19917;-80
2022/12/05 09:48:14;;;;;;;;;;;;;;;12.67;53.57;99898.09;5053748;28;19921;-80
2022/12/05 09:50:43;;;;;;;;;;;;;;;12.65;53.34;99888.66;5019261;28;20307;-80
2022/12/05 09:53:15;;;;;;;;;;;;;;;12.63;53.47;99893.16;5035427;28;19924;-80
2022/12/05 09:55:52;;;;;;;;;;;;;;;12.60;53.20;99886.38;5035634;28;20363;-80
2022/12/05 09:58:21;;;;;;;;;;;;;;;12.59;53.31;99883.84;5053428;28;19921;-79
2022/12/05 10:00:46;;;;;;;;;;;;;;;12.56;53.44;99884.06;5053617;28;20457;-78
2022/12/05 10:03:24;;;;;;;;;;;;;;;12.53;53.29;99887.72;5035206;28;19917;-77
2022/12/05 10:06:00;;;;;;;;;;;;;;;12.52;53.38;99886.03;5035677;28;19917;-80
2022/12/05 10:08:29;;;;;;;;;;;;;;;12.52;53.08;99878.16;5018920;28;19917;-77
2022/12/05 10:11:13;;;;;;;;;;;;;;;12.54;53.06;99872.81;5018947;28;19917;-78
2022/12/05 10:13:41;;;;;;;;;;;;;;;12.63;52.95;99874.84;5052178;28;19921;-78
2022/12/05 10:16:10;;;;;;;;;;;;;;;12.76;52.52;99875.72;5053038;28;19916;-78
2022/12/05 10:18:42;;;;;;;;;;;;;;;12.79;52.43;99874.63;5035344;28;20315;-78
2022/12/05 10:21:07;;;;;;;;;;;;;;;12.79;52.15;99870.25;5018342;28;20039;-80
2022/12/05 10:23:51;;;;;;;;;;;;;;;12.79;52.00;99875.50;5052980;28;19944;-79
2022/12/05 10:26:16;;;;;;;;;;;;;;;12.74;51.95;99874.94;5051833;28;20384;-79
2022/12/05 10:29:02;;;;;;;;;;;;;;;12.70;51.88;99865.63;5018591;28;19916;-79
2022/12/05 10:31:31;;;;;;;;;;;;;;;12.65;52.18;99868.56;4991120;28;19949;-79
2022/12/05 10:34:09;;;;;;;;;;;;;;;12.61;52.29;99869.69;4974978;28;19918;-79
2022/12/05 10:36:34;;;;;;;;;;;;;;;12.58;52.54;99863.84;4958837;28;19984;-79
2022/12/05 10:39:00;;;;;;;;;;;;;;;12.55;52.58;99869.28;4975104;28;19918;-79
2022/12/05 10:41:25;;;;;;;;;;;;;;;12.53;52.71;99879.03;4975135;28;19917;-80
2022/12/05 10:43:50;;;;;;;;;;;;;;;12.48;52.97;99877.53;4959089;28;19918;-79
2022/12/05 10:46:16;;;;;;;;;;;;;;;12.44;52.88;99880.44;4975052;28;19918;-79
2022/12/05 10:48:41;;;;;;;;;;;;;;;12.40;53.12;99877.22;4976040;28;19918;-79
2022/12/05 10:51:06;;;;;;;;;;;;;;;12.37;52.87;99869.56;4962781;28;20397;-79
2022/12/05 10:53:39;;;;;;;;;;;;;;;12.36;53.49;99867.84;4962370;28;19953;-79
2022/12/05 10:56:23;;;;;;;;;;;;;;;12.36;53.20;99864.41;4962749;28;19917;-79
2022/12/05 10:58:55;;;;;;;;;;;;;;;12.31;53.38;99856.84;4995012;28;20528;-80
2022/12/05 11:01:20;;;;;;;;;;;;;;;12.28;53.59;99850.03;4979277;28;20305;-79
2022/12/05 11:03:46;;;;;;;;;;;;;;;12.28;53.42;99846.59;4978586;28;19924;-79
2022/12/05 11:06:24;;;;;;;;;;;;;;;12.31;53.20;99841.97;4978533;28;19917;-78
2022/12/05 11:08:54;;;;;;;;;;;;;;;12.34;53.28;99834.88;5015259;28;19960;-79
2022/12/05 11:11:20;;;;;;;;;;;;;;;12.36;53.33;99841.69;5021774;28;19927;-79
2022/12/05 11:13:58;;;;;;;;;;;;;;;12.35;53.22;99845.25;5021723;28;19917;-79
2022/12/05 11:16:24;;;;;;;;;;;;;;;12.33;53.57;99847.13;5060008;28;20312;-77
2022/12/05 11:18:50;;;;;;;;;;;;;;;12.27;53.66;99843.13;5050094;28;19916;-80
2022/12/05 11:21:18;;;;;;;;;;;;;;;12.25;53.86;99844.16;5024884;28;19916;-78
2022/12/05 11:23:44;;;;;;;;;;;;;;;12.21;53.59;99840.91;5027521;28;20008;-79
2022/12/05 11:26:27;;;;;;;;;;;;;;;12.18;53.66;99846.34;5022046;28;20391;-78
2022/12/05 11:28:53;;;;;;;;;;;;;;;12.16;54.27;99837.78;5055974;28;19917;-79
2022/12/05 11:31:24;;;;;;;;;;;;;;;12.16;54.05;99832.53;5038407;28;20012;-77
2022/12/05 11:33:59;;;;;;;;;;;;;;;12.15;54.02;99830.00;5021767;28;19924;-81
2022/12/05 11:36:27;;;;;;;;;;;;;;;12.13;53.83;99830.13;5055880;28;19917;-78
2022/12/05 11:38:53;;;;;;;;;;;;;;;12.13;54.06;99830.94;5038266;28;20356;-79
2022/12/05 11:41:25;;;;;;;;;;;;;;;12.12;53.88;99828.44;5021614;28;20020;-79
2022/12/05 11:43:53;;;;;;;;;;;;;;;12.14;54.05;99826.53;5021034;28;20004;-79
2022/12/05 11:46:26;;;;;;;;;;;;;;;12.18;53.85;99821.97;5037865;28;20395;-78
2022/12/05 11:48:52;;;;;;;;;;;;;;;12.23;54.06;99809.41;5037593;28;19917;-79
2022/12/05 11:51:26;;;;;;;;;;;;;;;12.31;53.84;99815.78;5038464;28;19923;-78
2022/12/05 11:53:56;;;;;;;;;;;;;;;12.39;53.59;99811.84;5037563;28;19917;-79
2022/12/05 11:56:28;;;;;;;;;;;;;;;12.47;53.69;99806.94;5037914;28;20307;-79
2022/12/05 11:59:03;;;;;;;;;;;;;;;12.58;53.55;99814.06;5056060;28;19927;-79
2022/12/05 12:01:47;;;;;;;;;;;;;;;12.67;53.31;99813.44;5036628;28;19921;-78
2022/12/05 12:04:16;;;;;;;;;;;;;;;12.72;53.50;99813.97;5055446;28;19917;-79
2022/12/05 12:07:00;;;;;;;;;;;;;;;12.77;53.02;99811.88;5021141;28;20397;-78
2022/12/05 12:09:25;;;;;;;;;;;;;;;12.84;53.01;99804.44;5055838;28;19917;-78
2022/12/05 12:11:51;;;;;;;;;;;;;;;12.87;52.86;99803.38;5055478;28;20269;-78
2022/12/05 12:14:25;;;;;;;;;;;;;;;12.90;52.86;99808.41;5055095;28;20368;-79
2022/12/05 12:17:01;;;;;;;;;;;;;;;12.89;53.29;99809.34;5055713;28;19917;-79
2022/12/05 12:19:38;;;;;;;;;;;;;;;12.87;53.17;99808.63;5020922;28;20375;-78
2022/12/05 12:22:03;;;;;;;;;;;;;;;12.86;53.12;99805.16;5020704;28;19924;-79
2022/12/05 12:24:29;;;;;;;;;;;;;;;12.82;53.28;99801.06;5037844;28;20023;-79
2022/12/05 12:26:55;;;;;;;;;;;;;;;12.80;53.23;99803.78;5056467;28;19940;-79
2022/12/05 12:29:40;;;;;;;;;;;;;;;12.77;53.17;99793.53;5055969;28;19917;-79
2022/12/05 12:32:10;;;;;;;;;;;;;;;12.74;53.43;99793.72;5054085;28;19938;-79
2022/12/05 12:34:48;;;;;;;;;;;;;;;12.71;53.37;99796.56;5037517;28;20421;-78
2022/12/05 12:37:16;;;;;;;;;;;;;;;12.65;53.46;99787.34;5037436;28;20354;-78
2022/12/05 12:39:52;;;;;;;;;;;;;;;12.62;53.87;99794.59;5037032;28;19917;-80
2022/12/05 12:42:22;;;;;;;;;;;;;;;12.60;53.61;99797.31;5036930;28;20272;-79
2022/12/05 12:44:51;;;;;;;;;;;;;;;12.57;53.89;99799.28;5020281;28;19916;-80
2022/12/05 12:47:26;;;;;;;;;;;;;;;12.53;53.86;99793.41;5054878;28;19924;-77
2022/12/05 12:49:52;;;;;;;;;;;;;;;12.49;53.99;99790.19;5037185;28;19917;-80
2022/12/05 12:52:18;;;;;;;;;;;;;;;12.46;54.13;99792.16;5055147;28;20019;-78
2022/12/05 12:55:02;;;;;;;;;;;;;;;12.44;54.16;99788.78;5021019;28;20272;-78
2022/12/05 12:57:36;;;;;;;;;;;;;;;12.40;54.09;99785.56;5053861;28;19938;-77
2022/12/05 13:00:04;;;;;;;;;;;;;;;12.39;53.97;99788.28;5054553;28;19927;-79
2022/12/05 13:02:35;;;;;;;;;;;;;;;12.38;54.31;99778.72;5019919;28;19921;-78
2022/12/05 13:05:00;;;;;;;;;;;;;;;12.37;54.35;99780.53;5036381;28;19939;-77